Αθήνα, Ελλάδα

05:17 AM EEST on Οκτώβριος 23, 2014 (GMT +0300)
Kalamaki - AirMar | Change Station
CLOSE
Current Station
Personal Weather Stations
Location: Alimos, ATTICA
Elevation: 92 ft
Nearby Weather Stations

Elev 92 ft 37.92 °N, 23.71 °E | Updated 6 minutes ago

Mostly Cloudy
Νεφελώδης
74.4 ° F
Feels Like 74 ° F
N
18.0
Ανεμος Μεταβλητός Ανεμος from ΑΝΑ

Σήμερα
High -- | Low -- ° F
--% Chance of Precip.
Yesterday
High -- | Low -- ° F
Precip. -- in
7:41 AM 6:37 PM
Μηνίσκος, 1% visible
Ατμοσφαιρική Πίεση 29.56 in
Ορατότητα 6.2 Μίλια
Σύννεφα Νεφελώδης 2500 ft
Νεφελώδης 8000 ft
Δείκτης Δυσφορίας 74 ° F
Σημείο Δρόσου 69 ° F
Υγρασία 82%
Rainfall 0.00 in
Snow Depth Not available.
Υπεριώδης ακτινοβολία (UV) 0 out of 12
Pollen Not available.
Air Quality Not available.
Flu Activity Not available.
METAR LGAV 230150Z 18019KT 9999 BKN025 BKN080 21/17 Q1001 NOSIG

More Conditions Fewer Conditions

Ατμοσφαιρική Πίεση 29.56 in
Ορατότητα 6.2 Μίλια
Σύννεφα Νεφελώδης 2500 ft
Νεφελώδης 8000 ft
Δείκτης Δυσφορίας 74 ° F
Σημείο Δρόσου 69 ° F
Υγρασία 82%
Rainfall 0.00 in
Snow Depth Not available.
Υπεριώδης ακτινοβολία (UV) 0 out of 12
Pollen Not available.
Air Quality Not available.
Flu Activity Not available.
METAR LGAV 230150Z 18019KT 9999 BKN025 BKN080 21/17 Q1001 NOSIG

More Conditions Fewer Conditions

10-Day Weather Forecast

Almanac

Αστρονομία

Oct. 23, 2014 Rise Set
Actual Time 7:41 AM EEST 6:37 PM EEST
Civil Twilight 7:14 AM EEST 7:03 PM EEST
Nautical Twilight 6:43 AM EEST 7:34 PM EEST
Astronomical Twilight 6:13 AM EEST 8:05 PM EEST
Moon 7:02 AM EEST 6:27 PM EEST
Length Of Visible Light 11h 49m
Διάρκεια ημέρας
10h 56m
Tomorrow will be 2m 17s shorter.
Μηνίσκος, 1% of the Moon is Illuminated
Oct 22
Μηνίσκος
Oct 23
New
Oct 30
Πρώτο τέταρτο
Nov 6
Πανσέληνος
Nov 14
Τελευταίο τέταρτο

Yesterday's Extremes

Country Highs Country Lows

Community

WunderPhotos

Upload Photos

1,764,109 photos uploaded!

Nearby

Snow Depth

Not available.

Earthquake Activity

City Distance Mag. Time & Date
No recent earthquake activity has been reported nearby.
Minimum magnitude displayed is 2.5.

Coastal Water Temperatures

Τοποθεσία Θερμοκρασία
No Stations Reporting

Nearby Weather Stations